createdAt,value
2018-12-07T00:00:04.441Z,2.43
2018-12-07T00:02:31.568Z,3.50
2018-12-07T00:04:58.665Z,2.90
2018-12-07T00:07:25.775Z,3.03
2018-12-07T00:09:52.869Z,2.60
2018-12-07T00:12:19.984Z,2.43
2018-12-07T00:14:47.092Z,2.60
2018-12-07T00:17:14.168Z,2.97
2018-12-07T00:19:47.712Z,2.57
2018-12-07T00:22:08.365Z,2.27
2018-12-07T00:24:35.495Z,2.73
2018-12-07T00:27:02.637Z,2.60
2018-12-07T00:29:29.736Z,2.43
2018-12-07T00:31:56.821Z,2.60
2018-12-07T00:34:23.901Z,2.53
2018-12-07T00:36:51.021Z,2.63
2018-12-07T00:39:18.136Z,2.80
2018-12-07T00:41:45.254Z,2.67
2018-12-07T00:44:12.352Z,2.03
2018-12-07T00:46:39.462Z,2.30
2018-12-07T00:49:06.578Z,2.20
2018-12-07T00:51:33.675Z,2.50
2018-12-07T00:54:00.786Z,2.30
2018-12-07T00:56:27.855Z,2.20
2018-12-07T00:58:54.946Z,2.50
2018-12-07T01:01:22.025Z,2.47
2018-12-07T01:03:49.130Z,2.20
2018-12-07T01:06:16.228Z,1.87
2018-12-07T01:08:43.312Z,2.40
2018-12-07T01:11:10.391Z,2.33
2018-12-07T01:13:37.509Z,2.13
2018-12-07T01:16:04.631Z,2.43
2018-12-07T01:18:31.732Z,2.27
2018-12-07T01:20:58.821Z,2.13
2018-12-07T01:23:25.907Z,2.43
2018-12-07T01:25:52.988Z,2.20
2018-12-07T01:28:20.064Z,2.20
2018-12-07T01:30:47.174Z,2.50
2018-12-07T01:33:14.264Z,1.97
2018-12-07T01:35:41.402Z,2.00
2018-12-07T01:38:08.493Z,1.90
2018-12-07T01:40:35.627Z,2.30
2018-12-07T01:43:02.757Z,2.37
2018-12-07T01:45:29.868Z,2.30
2018-12-07T01:47:56.976Z,2.20
2018-12-07T01:50:24.108Z,2.20
2018-12-07T01:52:51.211Z,2.23
2018-12-07T01:55:18.330Z,1.90
2018-12-07T01:57:45.430Z,2.20
2018-12-07T02:00:12.546Z,2.00
2018-12-07T02:02:39.663Z,2.10
2018-12-07T02:05:06.784Z,2.10
2018-12-07T02:07:34.110Z,2.33
2018-12-07T02:10:01.190Z,2.07
2018-12-07T02:12:28.293Z,2.17
2018-12-07T02:14:55.390Z,2.20
2018-12-07T02:17:22.490Z,1.80
2018-12-07T02:19:49.613Z,1.87
2018-12-07T02:22:16.687Z,1.97
2018-12-07T02:24:43.771Z,1.80
2018-12-07T02:27:10.870Z,1.90
2018-12-07T02:29:37.977Z,1.70
2018-12-07T02:32:05.081Z,1.80
2018-12-07T02:34:32.210Z,2.00
2018-12-07T02:36:59.276Z,2.10
2018-12-07T02:39:26.407Z,1.83
2018-12-07T02:41:53.508Z,1.57
2018-12-07T02:44:20.612Z,1.60
2018-12-07T02:46:47.704Z,1.97
2018-12-07T02:49:14.789Z,2.17
2018-12-07T02:58:37.485Z,1.90
2018-12-07T03:01:04.597Z,1.90
2018-12-07T03:03:31.712Z,1.80
2018-12-07T03:05:58.820Z,1.67
2018-12-07T03:08:26.176Z,1.87
2018-12-07T03:10:53.329Z,1.63
2018-12-07T03:13:20.421Z,1.67
2018-12-07T03:15:47.587Z,1.63
2018-12-07T03:18:25.035Z,1.50
2018-12-07T03:20:52.195Z,1.80
2018-12-07T03:23:19.328Z,1.90
2018-12-07T03:25:46.486Z,1.63
2018-12-07T03:28:13.591Z,1.70
2018-12-07T03:30:40.742Z,2.07
2018-12-07T03:33:07.841Z,1.53
2018-12-07T03:35:34.988Z,1.80
2018-12-07T03:38:02.074Z,1.70
2018-12-07T03:40:29.191Z,1.53
2018-12-07T03:42:56.329Z,1.97
2018-12-07T03:45:23.429Z,1.63
2018-12-07T03:47:50.561Z,1.50
2018-12-07T03:50:17.676Z,1.60
2018-12-07T03:52:44.767Z,1.50
2018-12-07T03:55:11.888Z,1.60
2018-12-07T03:57:39.368Z,1.37
2018-12-07T04:00:06.484Z,1.30
2018-12-07T04:02:33.609Z,1.60
2018-12-07T04:05:00.724Z,1.80
2018-12-07T04:07:27.838Z,2.00
2018-12-07T04:09:54.932Z,1.70
2018-12-07T04:12:22.057Z,2.00
2018-12-07T04:14:49.169Z,1.70
2018-12-07T04:17:16.276Z,1.60
2018-12-07T04:19:43.398Z,1.70
2018-12-07T04:22:10.486Z,1.70
2018-12-07T04:24:37.567Z,1.60
2018-12-07T04:27:04.685Z,1.60
2018-12-07T04:29:31.794Z,1.40
2018-12-07T04:31:58.917Z,1.80
2018-12-07T04:34:26.046Z,1.90
2018-12-07T04:36:53.169Z,1.50
2018-12-07T04:39:20.321Z,1.73
2018-12-07T04:41:47.428Z,1.90
2018-12-07T04:44:14.580Z,2.00
2018-12-07T04:46:41.679Z,1.93
2018-12-07T04:49:08.796Z,1.30
2018-12-07T04:51:35.952Z,1.80
2018-12-07T04:54:03.061Z,1.53
2018-12-07T04:56:30.213Z,1.80
2018-12-07T04:58:57.315Z,1.80
2018-12-07T05:01:24.438Z,1.77
2018-12-07T05:03:51.525Z,1.50
2018-12-07T05:06:18.640Z,1.80
2018-12-07T05:08:45.760Z,1.80
2018-12-07T05:11:12.889Z,1.70
2018-12-07T05:13:40.030Z,1.50
2018-12-07T05:16:07.308Z,1.60
2018-12-07T05:18:34.418Z,1.70
2018-12-07T05:21:01.519Z,1.70
2018-12-07T05:23:28.647Z,1.70
2018-12-07T05:25:55.737Z,2.00
2018-12-07T05:28:22.837Z,1.73
2018-12-07T05:30:49.945Z,1.57
2018-12-07T05:33:17.072Z,1.90
2018-12-07T05:35:44.160Z,1.60
2018-12-07T05:38:11.280Z,1.43
2018-12-07T05:40:38.384Z,1.63
2018-12-07T05:43:05.514Z,1.97
2018-12-07T05:45:32.621Z,1.80
2018-12-07T05:47:59.716Z,2.03
2018-12-07T05:50:26.841Z,1.70
2018-12-07T05:52:54.012Z,1.40
2018-12-07T05:55:21.062Z,1.77
2018-12-07T05:57:48.196Z,1.57
2018-12-07T06:00:15.304Z,1.80
2018-12-07T06:02:42.430Z,1.70
2018-12-07T06:05:09.512Z,1.70
2018-12-07T06:07:36.617Z,1.73
2018-12-07T06:10:04.229Z,1.80
2018-12-07T06:12:31.474Z,1.60
2018-12-07T06:14:58.573Z,1.90
2018-12-07T06:17:25.686Z,1.90
2018-12-07T06:19:52.816Z,1.77
2018-12-07T06:22:19.929Z,1.90
2018-12-07T06:24:47.040Z,2.00
2018-12-07T06:27:14.140Z,1.67
2018-12-07T06:29:41.300Z,1.73
2018-12-07T06:32:08.449Z,1.80
2018-12-07T06:34:35.565Z,1.70
2018-12-07T06:37:02.680Z,1.50
2018-12-07T06:39:29.781Z,1.53
2018-12-07T06:41:56.998Z,1.50
2018-12-07T06:44:24.060Z,1.60
2018-12-07T06:46:51.185Z,1.77
2018-12-07T06:49:18.288Z,1.60
2018-12-07T06:51:45.422Z,1.93
2018-12-07T06:54:12.538Z,1.80
2018-12-07T06:56:39.670Z,1.57
2018-12-07T06:59:06.790Z,1.47
2018-12-07T07:01:33.904Z,1.60
2018-12-07T07:04:01.036Z,1.50
2018-12-07T07:06:28.158Z,1.37
2018-12-07T07:08:55.292Z,1.30
2018-12-07T07:11:22.389Z,1.40
2018-12-07T07:13:49.525Z,1.60
2018-12-07T07:16:22.880Z,1.67
2018-12-07T07:18:43.794Z,1.33
2018-12-07T07:21:10.908Z,1.60
2018-12-07T07:23:38.066Z,1.40
2018-12-07T07:26:05.174Z,1.60
2018-12-07T07:28:32.334Z,1.47
2018-12-07T07:30:59.437Z,1.30
2018-12-07T07:33:26.545Z,1.93
2018-12-07T07:35:53.648Z,1.30
2018-12-07T07:38:20.781Z,1.47
2018-12-07T07:40:47.885Z,1.23
2018-12-07T07:43:14.998Z,1.50
2018-12-07T07:45:42.129Z,1.60
2018-12-07T07:48:09.233Z,1.40
2018-12-07T07:50:36.353Z,2.10
2018-12-07T07:53:03.477Z,1.40
2018-12-07T07:55:30.590Z,1.40
2018-12-07T07:57:57.691Z,1.60
2018-12-07T08:00:24.788Z,1.37
2018-12-07T08:02:51.902Z,1.63
2018-12-07T08:05:18.998Z,1.93
2018-12-07T08:07:46.104Z,1.70
2018-12-07T08:10:13.235Z,1.53
2018-12-07T08:12:40.343Z,1.80
2018-12-07T08:15:07.447Z,1.83
2018-12-07T08:17:34.541Z,1.63
2018-12-07T08:20:01.640Z,1.60
2018-12-07T08:22:28.737Z,1.70
2018-12-07T08:24:55.845Z,1.77
2018-12-07T08:27:23.462Z,1.87
2018-12-07T08:29:50.598Z,1.53
2018-12-07T08:32:17.732Z,1.73
2018-12-07T08:34:44.859Z,1.40
2018-12-07T08:37:11.964Z,1.50
2018-12-07T08:39:39.075Z,1.47
2018-12-07T08:42:06.960Z,1.53
2018-12-07T08:44:33.353Z,1.53
2018-12-07T08:47:00.469Z,1.50
2018-12-07T08:49:33.486Z,1.90
2018-12-07T08:52:00.589Z,1.50
2018-12-07T08:54:27.696Z,1.77
2018-12-07T08:56:54.837Z,1.50
2018-12-07T08:59:21.960Z,1.40
2018-12-07T09:01:49.064Z,1.60
2018-12-07T09:04:16.185Z,1.73
2018-12-07T09:06:43.316Z,1.23
2018-12-07T09:09:10.456Z,1.30
2018-12-07T09:11:37.579Z,1.23
2018-12-07T09:14:04.695Z,1.43
2018-12-07T09:16:31.852Z,1.80
2018-12-07T09:18:58.955Z,1.50
2018-12-07T09:21:26.030Z,1.30
2018-12-07T09:23:53.141Z,1.50
2018-12-07T09:26:20.246Z,1.30
2018-12-07T09:28:47.379Z,1.33
2018-12-07T09:31:14.501Z,1.30
2018-12-07T09:33:41.633Z,1.37
2018-12-07T09:36:08.735Z,1.43
2018-12-07T09:38:35.850Z,1.30
2018-12-07T09:41:02.936Z,1.20
2018-12-07T09:43:30.035Z,1.50
2018-12-07T09:45:57.173Z,1.80
2018-12-07T09:48:24.269Z,1.30
2018-12-07T09:50:51.378Z,1.10
2018-12-07T09:53:18.533Z,1.40
2018-12-07T09:55:45.644Z,1.37
2018-12-07T09:58:12.728Z,1.23
2018-12-07T10:00:39.869Z,1.10
2018-12-07T10:03:06.976Z,1.30
2018-12-07T10:05:34.081Z,1.10
2018-12-07T10:08:01.173Z,0.97
2018-12-07T10:10:28.294Z,1.20
2018-12-07T10:12:55.414Z,1.40
2018-12-07T10:15:22.528Z,1.43
2018-12-07T10:17:49.616Z,1.10
2018-12-07T10:20:16.726Z,0.93
2018-12-07T10:22:43.853Z,1.07
2018-12-07T10:25:10.987Z,1.20
2018-12-07T10:27:38.112Z,1.00
2018-12-07T10:30:05.267Z,0.90
2018-12-07T10:32:32.371Z,1.23
2018-12-07T10:34:59.468Z,1.20
2018-12-07T10:37:26.561Z,1.10
2018-12-07T10:39:53.656Z,1.20
2018-12-07T10:42:20.737Z,1.13
2018-12-07T10:44:47.902Z,1.10
2018-12-07T10:47:15.020Z,1.20
2018-12-07T10:49:42.127Z,1.07
2018-12-07T10:52:09.232Z,1.00
2018-12-07T10:54:36.365Z,1.07
2018-12-07T10:57:03.507Z,1.00
2018-12-07T10:59:30.617Z,1.00
2018-12-07T11:02:03.397Z,0.97
2018-12-07T11:04:36.273Z,1.10
2018-12-07T11:07:09.259Z,0.80
2018-12-07T11:09:42.552Z,0.83
2018-12-07T11:12:15.308Z,1.00
2018-12-07T11:14:48.211Z,1.00
2018-12-07T11:17:21.132Z,0.97
2018-12-07T11:19:54.052Z,0.60
2018-12-07T11:22:26.933Z,0.77
2018-12-07T11:24:59.837Z,0.80
2018-12-07T11:27:32.758Z,0.90
2018-12-07T11:30:05.792Z,0.80
2018-12-07T11:32:37.493Z,0.83
2018-12-07T11:35:07.590Z,1.00
2018-12-07T11:37:34.723Z,0.80
2018-12-07T11:40:02.057Z,0.80
2018-12-07T11:42:29.166Z,0.90
2018-12-07T11:44:56.280Z,0.77
2018-12-07T11:47:23.408Z,1.10
2018-12-07T11:49:50.562Z,0.80
2018-12-07T11:52:17.692Z,0.90
2018-12-07T11:54:44.799Z,0.70
2018-12-07T11:57:11.896Z,0.73
2018-12-07T11:59:39.019Z,0.83
2018-12-07T12:02:06.194Z,1.00
2018-12-07T12:04:33.313Z,0.80
2018-12-07T12:07:00.440Z,1.00
2018-12-07T12:09:27.548Z,0.90
2018-12-07T12:11:54.672Z,0.80
2018-12-07T12:14:21.805Z,1.03
2018-12-07T12:16:48.917Z,0.90
2018-12-07T12:19:16.036Z,0.90
2018-12-07T12:21:43.173Z,0.80
2018-12-07T12:24:10.288Z,0.73
2018-12-07T12:26:37.393Z,0.70
2018-12-07T12:29:04.506Z,1.00
2018-12-07T12:31:31.640Z,0.87
2018-12-07T12:33:58.740Z,0.80
2018-12-07T12:36:25.866Z,0.70
2018-12-07T12:38:52.968Z,0.70
2018-12-07T12:41:20.076Z,0.60
2018-12-07T12:43:47.188Z,0.70
2018-12-07T12:46:14.309Z,0.60
2018-12-07T12:48:41.412Z,0.60
2018-12-07T12:51:08.548Z,0.73
2018-12-07T12:53:35.656Z,0.53
2018-12-07T12:56:02.800Z,0.90
2018-12-07T12:58:29.897Z,0.80
2018-12-07T13:00:57.021Z,0.60
2018-12-07T13:03:24.129Z,0.50
2018-12-07T13:05:51.244Z,0.50
2018-12-07T13:08:18.351Z,0.97
2018-12-07T13:10:45.498Z,0.50
2018-12-07T13:13:12.613Z,0.70
2018-12-07T13:15:39.720Z,0.57
2018-12-07T13:18:06.813Z,0.60
2018-12-07T13:20:33.959Z,0.90
2018-12-07T13:23:01.085Z,0.57
2018-12-07T13:25:28.197Z,0.70
2018-12-07T13:27:55.304Z,0.53
2018-12-07T13:30:22.406Z,0.50
2018-12-07T13:32:49.548Z,0.63
2018-12-07T13:35:16.648Z,0.70
2018-12-07T13:37:43.768Z,0.77
2018-12-07T13:40:11.030Z,0.77
2018-12-07T13:42:38.199Z,0.83
2018-12-07T13:45:07.031Z,0.70
2018-12-07T13:47:34.272Z,0.53
2018-12-07T13:50:06.881Z,0.70
2018-12-07T13:52:33.986Z,0.73
2018-12-07T13:55:01.271Z,0.60
2018-12-07T13:57:28.244Z,0.57
2018-12-07T13:59:55.450Z,0.60
2018-12-07T14:02:22.532Z,0.90
2018-12-07T14:04:49.693Z,0.60
2018-12-07T14:07:16.937Z,0.57
2018-12-07T14:09:44.021Z,0.50
2018-12-07T14:12:11.243Z,0.60
2018-12-07T14:14:38.399Z,0.70
2018-12-07T14:17:05.501Z,0.87
2018-12-07T14:19:32.520Z,0.60
2018-12-07T14:21:59.727Z,0.60
2018-12-07T14:24:26.859Z,0.83
2018-12-07T14:26:59.481Z,0.60
2018-12-07T14:29:21.475Z,0.60
2018-12-07T14:31:48.433Z,0.63
2018-12-07T14:34:15.549Z,0.80
2018-12-07T14:36:42.896Z,0.67
2018-12-07T14:39:09.832Z,0.70
2018-12-07T14:41:36.988Z,0.73
2018-12-07T14:44:04.234Z,0.83
2018-12-07T14:46:31.218Z,0.60
2018-12-07T14:48:58.418Z,0.70
2018-12-07T14:51:25.547Z,0.83
2018-12-07T14:53:52.799Z,0.80
2018-12-07T14:56:20.955Z,0.70
2018-12-07T14:58:46.947Z,0.57
2018-12-07T15:01:14.045Z,0.73
2018-12-07T15:03:41.309Z,0.40
2018-12-07T15:06:08.562Z,0.50
2018-12-07T15:08:35.470Z,0.70
2018-12-07T15:11:02.529Z,0.73
2018-12-07T15:13:29.649Z,0.60
2018-12-07T15:15:56.764Z,0.50
2018-12-07T15:18:24.065Z,0.60
2018-12-07T15:20:51.057Z,0.50
2018-12-07T15:23:18.249Z,0.73
2018-12-07T15:25:45.358Z,0.50
2018-12-07T15:28:12.658Z,0.83
2018-12-07T15:30:39.785Z,0.53
2018-12-07T15:33:06.851Z,0.70
2018-12-07T15:35:34.132Z,0.60
2018-12-07T15:38:01.176Z,0.60
2018-12-07T15:40:28.414Z,0.60
2018-12-07T15:42:55.372Z,0.53
2018-12-07T15:45:22.659Z,0.70
2018-12-07T15:47:49.809Z,0.60
2018-12-07T15:50:24.696Z,0.57
2018-12-07T15:52:43.989Z,0.50
2018-12-07T15:55:11.006Z,0.60
2018-12-07T15:57:38.321Z,0.60
2018-12-07T16:00:06.604Z,0.67
2018-12-07T16:02:33.758Z,0.50
2018-12-07T16:05:00.638Z,0.70
2018-12-07T16:07:27.770Z,0.70
2018-12-07T16:09:54.913Z,0.60
2018-12-07T16:12:21.970Z,0.70
2018-12-07T16:14:49.062Z,0.50
2018-12-07T16:17:16.209Z,0.60
2018-12-07T16:19:43.398Z,0.50
2018-12-07T16:22:10.537Z,0.60
2018-12-07T16:24:37.597Z,0.97
2018-12-07T16:27:04.751Z,0.73
2018-12-07T16:29:32.090Z,0.60
2018-12-07T16:31:59.057Z,0.60
2018-12-07T16:34:26.386Z,0.80
2018-12-07T16:36:53.314Z,1.00
2018-12-07T16:39:20.624Z,0.60
2018-12-07T16:41:47.737Z,0.50
2018-12-07T16:44:14.749Z,0.50
2018-12-07T16:46:42.032Z,0.70
2018-12-07T16:49:09.014Z,0.50
2018-12-07T16:51:36.253Z,0.60
2018-12-07T16:54:03.232Z,0.60
2018-12-07T16:56:30.331Z,0.63
2018-12-07T16:58:57.489Z,0.70
2018-12-07T17:01:24.694Z,0.70
2018-12-07T17:03:51.808Z,0.70
2018-12-07T17:06:18.901Z,1.00
2018-12-07T17:08:46.196Z,0.63
2018-12-07T17:11:13.165Z,0.70
2018-12-07T17:13:40.348Z,0.67
2018-12-07T17:16:07.494Z,0.63
2018-12-07T17:18:34.803Z,1.00
2018-12-07T17:21:01.741Z,0.60
2018-12-07T17:23:29.024Z,1.00
2018-12-07T17:25:56.284Z,0.77
2018-12-07T17:28:23.218Z,1.00
2018-12-07T17:30:50.273Z,1.00
2018-12-07T17:33:17.428Z,1.00
2018-12-07T17:35:44.631Z,1.20
2018-12-07T17:38:11.699Z,0.90
2018-12-07T17:40:39.006Z,1.10
2018-12-07T17:43:05.964Z,0.87
2018-12-07T17:45:33.129Z,0.80
2018-12-07T17:48:00.236Z,0.90
2018-12-07T17:50:27.529Z,1.27
2018-12-07T17:52:54.586Z,1.10
2018-12-07T17:55:21.928Z,0.90
2018-12-07T17:57:48.796Z,0.80
2018-12-07T18:00:15.921Z,1.20
2018-12-07T18:02:43.020Z,1.07
2018-12-07T18:05:10.210Z,0.80
2018-12-07T18:07:37.471Z,0.70
2018-12-07T18:10:06.005Z,0.63
2018-12-07T18:12:33.113Z,0.90
2018-12-07T18:15:00.450Z,0.83
2018-12-07T18:17:27.360Z,1.20
2018-12-07T18:19:54.402Z,1.30
2018-12-07T18:22:21.582Z,1.17
2018-12-07T18:24:48.655Z,1.20
2018-12-07T18:27:15.873Z,0.90
2018-12-07T18:29:43.017Z,1.40
2018-12-07T18:32:10.297Z,0.90
2018-12-07T18:34:37.225Z,0.90
2018-12-07T18:37:04.682Z,1.47
2018-12-07T18:39:31.711Z,1.37
2018-12-07T18:41:58.694Z,1.10
2018-12-07T18:44:25.866Z,1.20
2018-12-07T18:46:52.872Z,1.00
2018-12-07T18:49:20.076Z,1.37
2018-12-07T18:51:47.339Z,1.20
2018-12-07T18:54:14.344Z,0.83
2018-12-07T18:56:41.401Z,1.10
2018-12-07T18:59:08.729Z,1.10
2018-12-07T19:01:35.665Z,1.30
2018-12-07T19:04:02.897Z,1.00
2018-12-07T19:06:29.894Z,1.10
2018-12-07T19:08:57.090Z,1.00
2018-12-07T19:11:24.188Z,1.17
2018-12-07T19:13:51.505Z,0.90
2018-12-07T19:16:18.396Z,1.10
2018-12-07T19:18:45.580Z,1.07
2018-12-07T19:21:12.784Z,1.37
2018-12-07T19:23:39.827Z,1.20
2018-12-07T19:26:07.088Z,1.53
2018-12-07T19:28:34.096Z,0.90
2018-12-07T19:31:01.262Z,1.13
2018-12-07T19:33:28.491Z,1.10
2018-12-07T19:35:55.420Z,1.00
2018-12-07T19:38:22.682Z,0.90
2018-12-07T19:40:49.719Z,1.00
2018-12-07T19:43:16.794Z,1.10
2018-12-07T19:45:43.903Z,1.20
2018-12-07T19:48:11.079Z,1.20
2018-12-07T19:50:38.333Z,1.17
2018-12-07T19:53:05.313Z,1.00
2018-12-07T19:55:32.433Z,1.20
2018-12-07T19:57:59.575Z,1.10
2018-12-07T20:00:26.699Z,1.17
2018-12-07T20:02:53.861Z,1.07
2018-12-07T20:05:21.005Z,1.00
2018-12-07T20:07:48.136Z,1.00
2018-12-07T20:10:15.239Z,0.87
2018-12-07T20:12:49.058Z,1.43
2018-12-07T20:15:16.427Z,1.17
2018-12-07T20:17:43.293Z,1.10
2018-12-07T20:20:10.709Z,1.00
2018-12-07T20:22:37.586Z,1.20
2018-12-07T20:25:04.711Z,1.20
2018-12-07T20:27:31.883Z,0.90
2018-12-07T20:29:58.987Z,0.97
2018-12-07T20:32:26.076Z,0.87
2018-12-07T20:34:53.574Z,1.07
2018-12-07T20:37:20.689Z,1.20
2018-12-07T20:39:47.960Z,1.20
2018-12-07T20:42:14.762Z,0.90
2018-12-07T20:44:41.834Z,0.97
2018-12-07T20:47:08.999Z,1.10
2018-12-07T20:49:36.065Z,1.20
2018-12-07T20:52:03.239Z,1.00
2018-12-07T20:54:30.397Z,1.27
2018-12-07T20:56:57.784Z,0.80
2018-12-07T20:59:24.759Z,1.30
2018-12-07T21:01:52.019Z,1.00
2018-12-07T21:04:27.004Z,1.20
2018-12-07T21:08:08.878Z,0.77
2018-12-07T21:11:43.954Z,0.87
2018-12-07T21:14:24.142Z,1.10
2018-12-07T21:17:02.130Z,0.80
2018-12-07T21:19:29.263Z,1.30
2018-12-07T21:21:56.581Z,1.20
2018-12-07T21:24:23.500Z,1.00
2018-12-07T21:26:50.703Z,0.93
2018-12-07T21:29:17.781Z,1.00
2018-12-07T21:31:44.983Z,0.83
2018-12-07T21:34:18.499Z,0.90
2018-12-07T21:36:46.318Z,1.13
2018-12-07T21:41:21.786Z,0.90
2018-12-07T21:43:49.006Z,1.20
2018-12-07T21:46:16.097Z,0.73
2018-12-07T21:48:43.231Z,0.93
2018-12-07T21:53:18.243Z,0.97
2018-12-07T21:55:45.222Z,0.70
2018-12-07T21:58:12.216Z,1.00
2018-12-07T22:00:39.384Z,0.70
2018-12-07T22:03:06.570Z,1.10
2018-12-07T22:05:33.604Z,0.80
2018-12-07T22:08:00.832Z,0.97
2018-12-07T22:10:27.914Z,0.80
2018-12-07T22:12:55.343Z,0.73
2018-12-07T22:15:22.456Z,1.00
2018-12-07T22:17:49.381Z,0.70
2018-12-07T22:20:16.494Z,0.67
2018-12-07T22:22:43.841Z,1.03
2018-12-07T22:25:10.768Z,1.00
2018-12-07T22:27:37.847Z,0.80
2018-12-07T22:30:05.369Z,0.70
2018-12-07T22:32:32.155Z,0.90
2018-12-07T22:34:59.545Z,0.90
2018-12-07T22:37:26.391Z,0.77
2018-12-07T22:39:53.572Z,0.67
2018-12-07T22:42:20.794Z,0.70
2018-12-07T22:44:47.739Z,0.60
2018-12-07T22:47:15.080Z,0.60
2018-12-07T22:49:41.956Z,0.60
2018-12-07T22:52:09.098Z,0.80
2018-12-07T22:54:36.200Z,0.50
2018-12-07T22:57:03.312Z,0.90
2018-12-07T22:59:30.405Z,0.90
2018-12-07T23:01:57.502Z,0.80
2018-12-07T23:04:25.913Z,0.70
2018-12-07T23:06:51.767Z,0.50
2018-12-07T23:09:18.864Z,0.70
2018-12-07T23:11:46.001Z,0.67
2018-12-07T23:14:13.124Z,0.70
2018-12-07T23:16:40.248Z,0.70
2018-12-07T23:19:07.343Z,0.60
2018-12-07T23:21:34.455Z,0.50
2018-12-07T23:24:01.555Z,0.60
2018-12-07T23:26:28.660Z,0.50
2018-12-07T23:28:55.774Z,0.70
2018-12-07T23:31:22.876Z,0.70
2018-12-07T23:33:49.978Z,0.63
2018-12-07T23:36:17.069Z,0.40
2018-12-07T23:38:44.180Z,0.70
2018-12-07T23:41:11.248Z,0.50
2018-12-07T23:43:38.372Z,0.67
2018-12-07T23:46:05.457Z,0.60
2018-12-07T23:48:32.556Z,0.43
2018-12-07T23:50:59.637Z,0.50
2018-12-07T23:53:26.725Z,0.60
2018-12-07T23:55:53.792Z,0.60
2018-12-07T23:58:20.888Z,0.87
